Weather observations for the past three days for
Key West International Airport
Metric (Imperial)
Date Time (edt) Wind (kph) Vis. (km) Weather Sky Cond. Temperature (ºC) Relative Humidity Wind Chill (°C) Heat Index (°C) Pressure Precipitation (cm)
Air Dwpt 6 hour altimeter (cm) sea level (mb) 1 hr 3 hr 6 hr
Max. Min.
02 12:53 SW 20 16.09 Fair CLR 29.4 23.3 70% 34 75.97 1013.5
02 11:53 SW 20 16.09 Fair CLR 29.4 23.3 70% 34 76 1013.8
02 10:53 SW 17 16.09 Fair CLR 29.4 23.3 70% 34 76 1013.7
02 09:53 SW 19 16.09 A Few Clouds FEW016 29.4 23.9 72% 34 75.97 1013.5
02 08:53 SW 17 16.09 Fair CLR 28.9 23.3 72% 33 75.97 1013.2
02 07:53 SW 17 16.09 A Few Clouds FEW015 28.3 23.9 28.3 27.8 77% 32 75.95 1013.0
02 06:53 S 17 9.66 A Few Clouds with Haze FEW013 27.8 23.9 79% 32 75.92 1012.6
02 05:53 Calm 16.09 Mostly Cloudy BKN016 28.3 23.9 77% 32 75.9 1012.3
02 04:53 Calm 16.09 Fair CLR 28.3 22.8 72% 32 75.9 1012.4
02 03:53 Calm 16.09 Fair CLR 28.3 22.8 72% 32 75.9 1012.5
02 02:53 Calm 16.09 Partly Cloudy SCT055 28.3 23.3 74% 32 75.92 1012.6
02 01:53 Calm 16.09 Mostly Cloudy SCT055 BKN065 28.3 22.8 28.9 28.3 72% 32 75.92 1012.7
02 00:53 Calm 16.09 Mostly Cloudy BKN060 28.3 23.3 74% 32 75.97 1013.5
01 23:53 Calm 16.09 Mostly Cloudy BKN060 28.3 22.8 72% 32 76 1013.7
01 22:53 Calm 16.09 Fair CLR 28.3 21.7 67% 31 75.97 1013.3
01 21:53 Calm 16.09 Fair CLR 28.3 21.7 67% 31 75.95 1013.0
01 20:53 E 11 16.09 Fair CLR 28.3 21.1 65% 31 75.87 1012.1
01 19:53 N 9 16.09 Fair CLR 28.9 20.6 30.6 28.9 61% 31 75.82 1011.4
01 18:53 N 7 16.09 Fair CLR 30.6 20.6 55% 33 75.79 1011.2
01 17:53 SE 13 16.09 Fair CLR 29.4 21.1 61% 32 75.82 1011.3
01 16:53 SE 11 16.09 Fair CLR 29.4 21.1 61% 32 75.87 1011.9
01 15:53 SE 9 16.09 Fair CLR 29.4 21.1 61% 32 75.92 1012.7
01 14:53 S 11 16.09 Fair CLR 29.4 21.1 61% 32 75.97 1013.3
01 13:53 SE 11 16.09 Fair CLR 28.9 21.1 30 27.2 63% 31 76 1013.7
01 12:53 SE 9 16.09 Fair CLR 28.9 21.1 63% 31 76.05 1014.2
01 11:53 SE 11 16.09 Fair CLR 28.9 21.1 63% 31 76.05 1014.4
01 10:53 SE 9 16.09 Fair CLR 28.3 21.1 65% 31 76.02 1014.1
01 09:53 SE 11 16.09 A Few Clouds FEW032 28.3 21.1 65% 31 76.02 1014.1
01 08:53 SE 9 16.09 Partly Cloudy FEW024 SCT032 27.8 21.1 67% 30 76.02 1014.1
01 07:53 Calm 16.09 Partly Cloudy SCT022 27.2 21.1 27.2 25 69% 29 76.02 1014.1
01 06:53 Calm 16.09 Partly Cloudy SCT023 26.1 21.1 74% 28 75.97 1013.3
01 05:53 Calm 16.09 Fair CLR 25.6 20.6 74% 27 75.92 1012.8
01 04:53 S 6 16.09 Fair CLR 26.7 20.6 69% 28 75.92 1012.8
01 03:53 SE 6 16.09 Fair CLR 26.7 20.6 69% 28 75.92 1012.7
01 02:53 S 6 16.09 Partly Cloudy SCT023 26.1 21.7 77% 28 75.95 1012.9
01 01:53 Calm 16.09 Fair CLR 25.6 21.7 28.3 25.6 79% 27 75.97 1013.4
01 00:53 Calm 16.09 Fair CLR 26.1 22.2 79% 28 76 1013.7
30 23:53 Calm 16.09 Fair CLR 26.1 21.1 74% 28 76 1013.9
30 22:53 Calm 16.09 Fair CLR 26.7 21.7 74% 29 76 1013.9
30 21:53 N 6 16.09 Fair CLR 27.2 21.1 69% 29 75.97 1013.4
30 20:53 N 9 16.09 Fair CLR 27.8 21.7 69% 30 75.92 1012.8
30 19:53 W 6 16.09 Fair CLR 27.8 20 29.4 27.8 63% 29 75.9 1012.3
30 18:53 S 7 16.09 Fair CLR 27.8 20 63% 29 75.87 1011.9
30 17:53 S 11 16.09 Fair CLR 28.3 19.4 59% 30 75.87 1011.9
30 16:53 S 11 16.09 Fair CLR 28.3 20 61% 30 75.9 1012.2
30 15:53 S 6 16.09 Fair CLR 28.3 19.4 59% 30 75.92 1012.7
30 14:53 S 13 16.09 Fair CLR 28.3 20 61% 30 75.95 1013.0
30 13:53 S 11 16.09 A Few Clouds FEW028 28.9 20.6 29.4 26.7 61% 31 75.95 1013.1
30 12:53 S 11 16.09 A Few Clouds FEW026 28.9 20 59% 31 76.02 1014.2
30 11:53 S 11 16.09 A Few Clouds FEW030 28.3 20 61% 30 76.05 1014.5
30 10:53 S 9 16.09 A Few Clouds FEW024 28.3 20 61% 30 76.07 1014.6
30 09:53 SE 13 16.09 Fair CLR 27.8 20.6 65% 30 76.02 1014.2
30 08:53 SE 6 16.09 Partly Cloudy SCT024 27.2 20.6 67% 29 76.07 1014.6
30 07:53 Calm 16.09 Partly Cloudy SCT025 27.2 21.1 27.2 25.6 69% 29 76.05 1014.3
30 06:53 Calm 16.09 Partly Cloudy SCT024 25.6 20.6 74% 27 76.02 1013.9
30 05:53 Calm 16.09 A Few Clouds FEW023 26.7 20.6 69% 28 75.97 1013.4
30 04:53 Calm 16.09 A Few Clouds FEW025 25.6 20 71% 27 75.97 1013.3
30 03:53 Calm 16.09 A Few Clouds FEW025 26.1 20 69% 27 75.95 1013.2
30 02:53 Calm 16.09 Fair CLR 26.7 20.6 69% 28 76 1013.6
30 01:53 Calm 16.09 Fair CLR 26.1 20 27.8 26.1 69% 27 76.02 1014.2
30 00:53 Calm 16.09 Fair CLR 26.1 21.1 74% 28 76.1 1014.9
29 23:53 Calm 16.09 Fair CLR 26.7 21.7 74% 29 76.1 1015.1
29 22:53 Calm 16.09 Fair CLR 27.2 20.6 67% 29 76.1 1015.1
29 21:53 Calm 16.09 Fair CLR 27.2 20 65% 29 76.07 1014.6
29 20:53 S 7 16.09 Fair CLR 27.2 20.6 67% 29 76.02 1014.2
29 19:53 S 9 16.09 Fair CLR 27.2 20 29.4 27.2 65% 29 75.97 1013.5
29 18:53 S 9 16.09 Fair CLR 27.8 20 63% 29 75.97 1013.5
29 17:53 S 7 16.09 Fair CLR 28.3 20 61% 30 76.02 1013.9
29 16:53 SE 9 16.09 Fair CLR 28.3 20 61% 30 76.02 1014.1
29 15:53 SE 9 16.09 Partly Cloudy FEW036 SCT045 SCT065 28.9 20 59% 31 76.1 1015.0
29 14:53 SE 11 16.09 Partly Cloudy SCT065 28.9 20.6 61% 31 76.17 1016.2
29 13:53 SE 7 16.09 A Few Clouds FEW060 28.9 21.1 29.4 26.7 63% 31 76.23 1016.8
Date Time (edt) Wind (kph) Vis. (km) Weather Sky Cond. Air Dwpt Max. Min. Relative Humidity Wind Chill (°C) Heat Index (°C) altimeter (cm) sea level (mb) 1 hr 3 hr 6 hr
6 hour
Temperature (ºC) Pressure Precipitation (cm)